Time;durP1;ratioP1;P1;durP2;ratioP2;P2;SDS_P1;SDS_P2;PMS_P1;PMS_P2;Temp;Humidity;BMP_temperature;BMP_pressure;BME280_temperature;BME280_humidity;BME280_pressure;Samples;Min_cycle;Max_cycle;Signal;HPM_P1;HPM_P2
2023/12/07 00:02:18;;;;;;;193.43;40.63;;;;;;;-0.23;100.00;101718.38;7376575;19;20139;-57
2023/12/07 00:04:48;;;;;;;199.68;40.83;;;;;;;-0.33;100.00;101719.09;7397005;19;20244;-49
2023/12/07 00:07:18;;;;;;;270.20;75.47;;;;;;;-0.18;100.00;101729.00;7377414;19;20157;-50
2023/12/07 00:09:47;;;;;;;181.07;34.83;;;;;;;-0.45;100.00;101728.88;7395324;19;20139;-50
2023/12/07 00:12:17;;;;;;;184.85;41.83;;;;;;;-0.48;100.00;101737.81;7376031;19;20164;-52
2023/12/07 00:14:47;;;;;;;223.82;46.28;;;;;;;-0.46;100.00;101736.34;7398146;19;20179;-53
2023/12/07 00:17:19;;;;;;;200.07;40.67;;;;;;;-0.45;100.00;101744.09;7376507;19;20138;-49
2023/12/07 00:19:49;;;;;;;157.30;36.55;;;;;;;-0.60;100.00;101742.53;7397367;19;20142;-53
2023/12/07 00:22:19;;;;;;;202.30;40.83;;;;;;;-0.29;100.00;101746.53;7378859;19;20222;-53
2023/12/07 00:24:48;;;;;;;170.55;39.70;;;;;;;-0.30;100.00;101756.56;7399349;19;20202;-52
2023/12/07 00:27:18;;;;;;;186.90;39.33;;;;;;;-0.38;100.00;101752.31;7377821;19;20159;-52
2023/12/07 00:29:47;;;;;;;204.88;46.20;;;;;;;-0.19;100.00;101758.56;7394148;19;20603;-51
2023/12/07 00:32:20;;;;;;;161.80;38.05;;;;;;;-0.30;100.00;101751.50;7376169;19;20160;-49
2023/12/07 00:34:50;;;;;;;179.32;38.17;;;;;;;-0.46;100.00;101742.31;7395271;19;20603;-51
2023/12/07 00:37:20;;;;;;;180.90;38.72;;;;;;;-0.52;100.00;101741.69;7374082;19;20543;-49
2023/12/07 00:39:50;;;;;;;205.10;39.17;;;;;;;-0.36;100.00;101734.00;7395021;19;20202;-50
2023/12/07 00:42:19;;;;;;;164.38;40.05;;;;;;;-0.49;100.00;101736.94;7378002;19;20511;-50
2023/12/07 00:44:49;;;;;;;195.45;42.13;;;;;;;-0.25;100.00;101736.72;7396826;19;20643;-51
2023/12/07 00:47:21;;;;;;;173.43;39.05;;;;;;;-0.38;100.00;101745.63;7376130;19;20143;-51
2023/12/07 00:49:51;;;;;;;156.55;38.22;;;;;;;-0.49;100.00;101736.94;7396020;19;20165;-51
2023/12/07 00:52:21;;;;;;;167.25;41.42;;;;;;;-0.47;100.00;101732.03;7376915;19;20168;-55
2023/12/07 00:54:51;;;;;;;191.52;40.50;;;;;;;-0.26;100.00;101737.47;7399370;19;20639;-52
2023/12/07 00:57:21;;;;;;;234.48;53.88;;;;;;;-0.17;100.00;101731.69;7378390;19;20159;-55
2023/12/07 00:59:50;;;;;;;173.80;41.00;;;;;;;-0.44;100.00;101723.09;7398807;19;20607;-52
2023/12/07 01:02:22;;;;;;;185.70;39.53;;;;;;;-0.53;100.00;101717.06;7375247;19;20745;-51
2023/12/07 01:04:52;;;;;;;189.90;42.95;;;;;;;-0.43;100.00;101707.13;7398129;19;20170;-53
2023/12/07 01:07:22;;;;;;;188.63;44.47;;;;;;;-0.33;100.00;101713.13;7378837;19;20163;-55
2023/12/07 01:09:51;;;;;;;225.25;55.92;;;;;;;0.07;100.00;101732.34;7397119;19;20150;-55
2023/12/07 01:12:21;;;;;;;174.23;40.53;;;;;;;-0.30;100.00;101729.53;7380353;19;20303;-54
2023/12/07 01:14:51;;;;;;;219.18;56.63;;;;;;;-0.11;100.00;101730.50;7397565;19;20230;-54
2023/12/07 01:17:23;;;;;;;169.65;40.47;;;;;;;-0.38;100.00;101729.50;7376258;19;20160;-53
2023/12/07 01:19:53;;;;;;;183.00;43.80;;;;;;;-0.39;100.00;101737.84;7399464;19;20145;-54
2023/12/07 01:22:23;;;;;;;233.15;55.20;;;;;;;-0.28;100.00;101734.78;7375805;19;20150;-51
2023/12/07 01:24:52;;;;;;;179.32;42.88;;;;;;;-0.38;100.00;101729.50;7398139;19;20210;-53
2023/12/07 01:27:22;;;;;;;196.48;49.38;;;;;;;-0.41;100.00;101743.69;7378763;19;20178;-54
2023/12/07 01:29:52;;;;;;;160.52;39.03;;;;;;;-0.54;100.00;101738.09;7396965;19;20549;-50
2023/12/07 01:32:24;;;;;;;150.63;37.67;;;;;;;-0.64;100.00;101735.34;7375833;19;20524;-54
2023/12/07 01:34:54;;;;;;;218.20;57.05;;;;;;;-0.29;100.00;101745.66;7398571;19;20178;-51
2023/12/07 01:37:24;;;;;;;182.90;45.60;;;;;;;-0.48;100.00;101741.25;7376889;19;20160;-54
2023/12/07 01:39:53;;;;;;;207.50;50.95;;;;;;;-0.28;100.00;101747.47;7396314;19;20139;-50
2023/12/07 01:42:23;;;;;;;155.80;41.33;;;;;;;-0.35;100.00;101750.13;7374799;19;20139;-50
2023/12/07 01:44:53;;;;;;;137.80;36.25;;;;;;;-0.57;100.00;101748.81;7395235;19;20181;-52
2023/12/07 01:47:25;;;;;;;146.98;40.03;;;;;;;-0.54;100.00;101745.69;7374129;19;20630;-53
2023/12/07 01:49:55;;;;;;;136.85;36.00;;;;;;;-0.44;100.00;101745.91;7395396;19;20143;-50
2023/12/07 01:52:27;;;;;;;175.48;44.28;;;;;;;-0.44;100.00;101748.44;7374795;19;20134;-53
2023/12/07 01:54:57;;;;;;;143.90;39.55;;;;;;;-0.51;100.00;101742.59;7394856;19;20264;-49
2023/12/07 01:57:27;;;;;;;140.38;38.55;;;;;;;-0.56;100.00;101745.53;7375268;19;20149;-49
2023/12/07 01:59:57;;;;;;;136.23;37.95;;;;;;;-0.64;100.00;101737.88;7395486;19;20569;-52
2023/12/07 02:02:29;;;;;;;136.43;36.72;;;;;;;-0.61;100.00;101733.16;7374426;19;20142;-50
2023/12/07 02:04:59;;;;;;;138.57;37.88;;;;;;;-0.59;100.00;101729.13;7396139;19;20181;-50
2023/12/07 02:07:29;;;;;;;182.38;49.97;;;;;;;-0.44;100.00;101730.69;7374969;19;20143;-49
2023/12/07 02:09:59;;;;;;;130.60;36.38;;;;;;;-0.62;100.00;101724.63;7395044;19;20143;-50
2023/12/07 02:12:30;;;;;;;132.48;38.00;;;;;;;-0.50;100.00;101734.22;7375077;19;20207;-50
2023/12/07 02:15:00;;;;;;;118.70;34.70;;;;;;;-0.53;100.00;101728.88;7397196;19;20191;-49
2023/12/07 02:17:40;;;;;;;162.18;43.78;;;;;;;-0.21;100.00;101742.25;7378281;19;20211;-52
2023/12/07 02:20:15;;;;;;;142.93;38.97;;;;;;;-0.33;100.00;101726.72;7399848;19;20135;-52
2023/12/07 02:22:47;;;;;;;132.25;37.42;;;;;;;-0.41;100.00;101717.44;7376880;19;20206;-53
2023/12/07 02:25:20;;;;;;;116.45;34.47;;;;;;;-0.32;100.00;101715.81;7399544;19;20143;-49
2023/12/07 02:27:52;;;;;;;169.82;49.42;;;;;;;-0.23;100.00;101720.91;7377111;19;20761;-50
2023/12/07 02:30:22;;;;;;;130.57;35.20;;;;;;;-0.44;100.00;101720.56;7399976;19;20146;-49
2023/12/07 02:32:52;;;;;;;197.35;50.10;;;;;;;-0.21;100.00;101721.97;7377091;19;20286;-51
2023/12/07 02:35:21;;;;;;;119.75;34.72;;;;;;;-0.36;100.00;101720.44;7399771;19;20514;-50
2023/12/07 02:37:52;;;;;;;139.60;42.20;;;;;;;-0.35;100.00;101714.63;7372133;19;20190;-50
2023/12/07 02:40:24;;;;;;;126.03;36.40;;;;;;;-0.50;100.00;101704.72;7401585;19;20205;-50
2023/12/07 02:42:57;;;;;;;132.15;34.25;;;;;;;-0.47;100.00;101704.13;7377037;19;20667;-50
2023/12/07 02:45:28;;;;;;;141.10;39.35;;;;;;;-0.39;100.00;101712.50;7401274;19;20611;-50
2023/12/07 02:47:57;;;;;;;135.75;36.50;;;;;;;-0.53;100.00;101708.59;7377689;19;20202;-52
2023/12/07 02:50:27;;;;;;;138.07;36.00;;;;;;;-0.46;100.00;101716.94;7402654;19;20147;-48
2023/12/07 02:52:57;;;;;;;150.10;40.78;;;;;;;-0.35;100.00;101727.28;7377020;19;20202;-54
2023/12/07 02:55:27;;;;;;;137.15;36.45;;;;;;;-0.46;100.00;101736.34;7400266;19;20143;-53
2023/12/07 02:57:59;;;;;;;133.75;33.25;;;;;;;-0.57;100.00;101736.16;7376365;19;20194;-48
2023/12/07 03:00:28;;;;;;;150.38;36.47;;;;;;;-0.55;100.00;101743.91;7398248;19;20470;-50
2023/12/07 03:02:58;;;;;;;139.48;35.80;;;;;;;-0.55;100.00;101760.00;7373079;19;20215;-50
2023/12/07 03:05:28;;;;;;;167.40;42.72;;;;;;;-0.43;100.00;101773.06;7399017;19;20139;-52
2023/12/07 03:07:57;;;;;;;194.35;50.67;;;;;;;-0.38;100.00;101777.69;7374853;19;20620;-49
2023/12/07 03:10:27;;;;;;;189.93;53.22;;;;;;;-0.47;100.00;101786.16;7396082;19;20147;-49
2023/12/07 03:12:59;;;;;;;167.40;44.40;;;;;;;-0.31;100.00;101790.28;7374120;19;20290;-53
2023/12/07 03:15:29;;;;;;;138.50;34.30;;;;;;;-0.43;100.00;101788.28;7398305;19;20147;-50
2023/12/07 03:17:58;;;;;;;146.20;40.92;;;;;;;-0.29;100.00;101798.94;7374527;19;20190;-50
2023/12/07 03:20:28;;;;;;;127.13;34.47;;;;;;;-0.21;100.00;101809.88;7398503;19;20158;-48
2023/12/07 03:22:58;;;;;;;129.63;34.88;;;;;;;-0.48;100.00;101804.66;7374251;19;20215;-49
2023/12/07 03:25:28;;;;;;;127.18;37.65;;;;;;;-0.48;100.00;101814.78;7397082;19;20183;-51
2023/12/07 03:28:00;;;;;;;129.07;33.53;;;;;;;-0.45;100.00;101815.09;7373385;19;20202;-50
2023/12/07 03:30:29;;;;;;;120.85;38.90;;;;;;;-0.48;100.00;101824.94;7394335;19;20143;-51
2023/12/07 03:32:59;;;;;;;113.57;33.08;;;;;;;-0.42;100.00;101825.56;7373002;19;20213;-49
2023/12/07 03:35:29;;;;;;;117.63;32.60;;;;;;;-0.39;100.00;101829.16;7397167;19;20206;-49
2023/12/07 03:37:58;;;;;;;100.00;30.80;;;;;;;-0.43;100.00;101827.94;7375396;19;20196;-50
2023/12/07 03:40:28;;;;;;;118.97;32.15;;;;;;;-0.35;100.00;101826.22;7397642;19;20149;-52
2023/12/07 03:43:00;;;;;;;106.38;29.80;;;;;;;-0.37;100.00;101842.91;7373305;19;20201;-52
2023/12/07 03:45:30;;;;;;;103.05;30.95;;;;;;;-0.30;100.00;101836.06;7395101;19;20162;-52
2023/12/07 03:48:00;;;;;;;102.47;31.30;;;;;;;-0.38;100.00;101833.47;7372132;19;20206;-49
2023/12/07 03:50:29;;;;;;;121.68;34.38;;;;;;;-0.38;100.00;101836.03;7396841;19;20135;-49
2023/12/07 03:52:59;;;;;;;110.43;33.03;;;;;;;-0.48;100.00;101830.00;7372477;19;20190;-50
2023/12/07 03:55:29;;;;;;;114.78;33.80;;;;;;;-0.53;100.00;101823.56;7397154;19;20599;-49
2023/12/07 03:58:01;;;;;;;160.45;49.35;;;;;;;-0.23;100.00;101832.53;7372263;19;20198;-50
2023/12/07 04:00:32;;;;;;;115.50;32.30;;;;;;;-0.47;100.00;101836.00;7393504;19;20146;-49
2023/12/07 04:03:01;;;;;;;121.63;39.30;;;;;;;-0.43;100.00;101828.84;7370774;19;20201;-48
2023/12/07 04:05:31;;;;;;;104.50;30.85;;;;;;;-0.51;100.00;101827.13;7393437;19;20630;-49
2023/12/07 04:08:01;;;;;;;110.25;31.42;;;;;;;-0.49;100.00;101828.22;7233242;19;2731441;-51
2023/12/07 04:10:30;;;;;;;103.35;31.45;;;;;;;-0.44;100.00;101832.13;7395603;19;20146;-52
2023/12/07 04:13:03;;;;;;;119.47;32.65;;;;;;;-0.34;100.00;101838.16;7373561;19;20604;-51
2023/12/07 04:15:32;;;;;;;122.68;35.60;;;;;;;-0.20;100.00;101842.09;7396832;19;20146;-49
2023/12/07 04:18:02;;;;;;;122.03;36.53;;;;;;;-0.08;100.00;101834.84;7375166;19;20198;-51
2023/12/07 04:20:32;;;;;;;103.32;32.30;;;;;;;-0.22;100.00;101831.78;7399192;19;20155;-53
2023/12/07 04:23:01;;;;;;;107.57;33.78;;;;;;;-0.20;100.00;101831.97;7374036;19;20198;-51
2023/12/07 04:25:31;;;;;;;145.10;42.27;;;;;;;-0.04;100.00;101815.00;7397106;19;20139;-49
2023/12/07 04:28:03;;;;;;;129.55;33.42;;;;;;;0.08;100.00;101817.91;7375907;19;20443;-51
2023/12/07 04:30:33;;;;;;;119.50;33.30;;;;;;;-0.06;100.00;101806.34;7396146;19;20138;-53
2023/12/07 04:33:03;;;;;;;99.65;31.35;;;;;;;-0.17;100.00;101795.13;7372431;19;20207;-50
2023/12/07 04:35:32;;;;;;;117.53;34.13;;;;;;;0.20;100.00;101799.59;7396563;19;20155;-49
2023/12/07 04:38:02;;;;;;;120.70;32.63;;;;;;;0.09;100.00;101784.16;7371008;19;20209;-52
2023/12/07 04:40:32;;;;;;;150.48;43.13;;;;;;;0.40;100.00;101779.59;7394959;19;20603;-51
2023/12/07 04:43:04;;;;;;;111.18;33.08;;;;;;;0.47;100.00;101767.50;7372859;19;20576;-53
2023/12/07 04:45:34;;;;;;;94.90;30.73;;;;;;;0.22;100.00;101744.78;7395962;19;20138;-51
2023/12/07 04:48:04;;;;;;;98.40;32.63;;;;;;;0.02;100.00;101725.91;7371976;19;20261;-48
2023/12/07 04:50:34;;;;;;;99.47;32.13;;;;;;;0.23;100.00;101719.53;7396394;19;20610;-50
2023/12/07 04:53:03;;;;;;;108.97;34.45;;;;;;;-0.01;100.00;101688.44;7373023;19;21121;-50
2023/12/07 04:55:33;;;;;;;98.97;32.30;;;;;;;-0.17;100.00;101669.88;7397243;19;20145;-48
2023/12/07 04:58:05;;;;;;;94.50;32.08;;;;;;;-0.35;100.00;101662.25;7372635;19;20234;-49
2023/12/07 05:00:35;;;;;;;107.38;36.10;;;;;;;-0.19;100.00;101659.63;7393973;19;20796;-54
2023/12/07 05:03:05;;;;;;;97.50;31.15;;;;;;;-0.25;100.00;101658.09;7370567;19;20205;-49
2023/12/07 05:05:34;;;;;;;105.72;35.30;;;;;;;-0.19;100.00;101664.69;7397034;19;20162;-48
2023/12/07 05:08:04;;;;;;;87.78;32.55;;;;;;;-0.25;100.00;101665.69;7374214;19;20694;-47
2023/12/07 05:10:34;;;;;;;97.33;33.47;;;;;;;-0.23;100.00;101660.03;7397151;19;20487;-48
2023/12/07 05:13:06;;;;;;;104.18;33.35;;;;;;;-0.27;100.00;101668.06;7373465;19;20400;-50
2023/12/07 05:15:36;;;;;;;83.93;29.83;;;;;;;-0.26;100.00;101672.41;7397027;19;20139;-48
2023/12/07 05:18:06;;;;;;;96.93;33.85;;;;;;;-0.26;100.00;101669.00;7374170;19;20575;-49
2023/12/07 05:20:38;;;;;;;107.22;31.50;;;;;;;-0.21;100.00;101681.38;7394942;19;20143;-52
2023/12/07 05:23:08;;;;;;;86.00;30.67;;;;;;;-0.28;100.00;101684.03;7371879;19;20254;-47
2023/12/07 05:25:38;;;;;;;98.80;33.33;;;;;;;-0.24;100.00;101692.84;7395000;19;20142;-47
2023/12/07 05:28:11;;;;;;;94.18;32.28;;;;;;;-0.32;100.00;101694.59;7373907;19;20208;-50
2023/12/07 05:30:41;;;;;;;98.68;33.90;;;;;;;-0.18;100.00;101703.63;7394475;19;20143;-49
2023/12/07 05:33:13;;;;;;;87.47;30.55;;;;;;;-0.17;100.00;101706.31;7372368;19;20674;-49
2023/12/07 05:35:42;;;;;;;99.45;33.65;;;;;;;-0.13;100.00;101707.53;7394186;19;20227;-50
2023/12/07 05:38:12;;;;;;;122.35;44.55;;;;;;;0.00;100.00;101717.28;7371033;19;20202;-49
2023/12/07 05:40:41;;;;;;;86.88;31.65;;;;;;;-0.11;100.00;101721.25;7395225;19;20218;-49
2023/12/07 05:43:14;;;;;;;91.80;30.30;;;;;;;-0.11;100.00;101721.25;7370984;19;20214;-50
2023/12/07 05:45:46;;;;;;;79.03;30.20;;;;;;;-0.24;100.00;101710.63;7394741;19;20619;-51
2023/12/07 05:48:15;;;;;;;124.97;42.92;;;;;;;0.17;100.00;101718.03;7371853;19;20206;-51
2023/12/07 05:50:45;;;;;;;88.20;29.35;;;;;;;-0.17;100.00;101713.94;7394819;19;20135;-50
2023/12/07 05:53:15;;;;;;;81.75;31.42;;;;;;;-0.18;100.00;101704.53;7370824;19;20671;-49
2023/12/07 05:55:44;;;;;;;116.65;39.95;;;;;;;0.11;100.00;101701.44;7393647;19;20143;-50
2023/12/07 05:58:17;;;;;;;116.40;40.47;;;;;;;0.20;100.00;101698.03;7370812;19;20198;-51
2023/12/07 06:00:47;;;;;;;92.67;32.83;;;;;;;0.28;100.00;101694.59;7393116;19;20146;-49
2023/12/07 06:03:17;;;;;;;82.15;30.55;;;;;;;0.05;100.00;101677.13;7369788;19;20478;-51
2023/12/07 06:05:47;;;;;;;82.78;29.05;;;;;;;-0.14;100.00;101666.00;7394569;19;20138;-48
2023/12/07 06:08:17;;;;;;;85.68;27.95;;;;;;;-0.08;100.00;101653.06;7369856;19;20198;-49
2023/12/07 06:10:46;;;;;;;78.82;28.92;;;;;;;0.19;100.00;101650.53;7392552;19;20234;-52
2023/12/07 06:13:19;;;;;;;83.32;31.33;;;;;;;0.00;100.00;101633.53;7370127;19;20288;-52
2023/12/07 06:15:48;;;;;;;85.43;29.02;;;;;;;0.11;100.00;101632.91;7395288;19;20166;-50
2023/12/07 06:18:18;;;;;;;71.40;26.83;;;;;;;0.21;100.00;101628.75;7371777;19;20218;-48
2023/12/07 06:20:50;;;;;;;90.97;31.25;;;;;;;0.29;100.00;101617.69;7393274;19;20419;-52
2023/12/07 06:23:20;;;;;;;73.60;27.02;;;;;;;0.06;100.00;101598.56;7370206;19;20222;-52
2023/12/07 06:25:50;;;;;;;69.97;26.03;;;;;;;-0.07;100.00;101595.56;7394712;19;20146;-52
2023/12/07 06:28:22;;;;;;;79.77;27.43;;;;;;;-0.10;100.00;101563.19;7371782;19;20386;-50
2023/12/07 06:30:51;;;;;;;74.90;28.25;;;;;;;0.05;100.00;101563.78;7392147;19;20409;-51
2023/12/07 06:33:21;;;;;;;71.60;26.90;;;;;;;-0.01;100.00;101558.13;7370200;19;20359;-50
2023/12/07 06:35:51;;;;;;;118.33;39.80;;;;;;;0.38;100.00;101561.81;7392787;19;20459;-51
2023/12/07 06:38:21;;;;;;;74.77;27.93;;;;;;;0.18;100.00;101562.44;7370814;19;20450;-50
2023/12/07 06:40:51;;;;;;;66.82;27.35;;;;;;;0.07;100.00;101549.63;7395270;19;20394;-49
2023/12/07 06:43:23;;;;;;;71.53;27.23;;;;;;;-0.02;100.00;101542.00;7369016;19;20219;-50
2023/12/07 06:45:53;;;;;;;71.05;27.10;;;;;;;-0.11;100.00;101538.56;7392176;19;20399;-53
2023/12/07 06:48:23;;;;;;;75.55;26.55;;;;;;;-0.18;100.00;101544.69;7370459;19;20263;-49
2023/12/07 06:50:53;;;;;;;87.93;29.52;;;;;;;-0.07;100.00;101565.13;7392754;19;20159;-49
2023/12/07 06:53:22;;;;;;;74.40;27.50;;;;;;;-0.10;100.00;101569.91;7369556;19;20230;-49
2023/12/07 06:55:52;;;;;;;84.32;30.25;;;;;;;0.07;100.00;101590.22;7390003;19;20152;-49
2023/12/07 06:58:24;;;;;;;67.63;26.77;;;;;;;0.06;100.00;101597.69;7368779;19;20195;-50
2023/12/07 07:00:54;;;;;;;124.85;42.80;;;;;;;0.35;100.00;101612.28;7392581;19;20512;-50
2023/12/07 07:03:24;;;;;;;70.53;26.08;;;;;;;0.26;100.00;101613.22;7376050;19;20212;-49
2023/12/07 07:05:54;;;;;;;130.15;42.75;;;;;;;0.37;100.00;101621.84;7399120;19;20251;-51
2023/12/07 07:08:23;;;;;;;88.97;28.48;;;;;;;0.30;100.00;101624.56;7375320;19;20202;-50
2023/12/07 07:10:53;;;;;;;81.30;28.95;;;;;;;0.20;100.00;101621.88;7397865;19;20632;-52
2023/12/07 07:13:25;;;;;;;79.80;28.00;;;;;;;-0.01;100.00;101616.47;7373908;19;20576;-50
2023/12/07 07:15:55;;;;;;;78.78;27.77;;;;;;;-0.20;100.00;101623.94;7399106;19;20399;-48
2023/12/07 07:18:25;;;;;;;90.47;31.50;;;;;;;-0.11;100.00;101634.09;7375993;19;20273;-50
2023/12/07 07:20:54;;;;;;;81.87;29.57;;;;;;;-0.16;100.00;101639.59;7398227;19;20158;-52
2023/12/07 07:23:24;;;;;;;95.60;30.38;;;;;;;-0.12;100.00;101647.53;7372945;19;20451;-51
2023/12/07 07:25:54;;;;;;;80.53;28.47;;;;;;;-0.11;100.00;101654.41;7395958;19;20143;-51
2023/12/07 07:28:26;;;;;;;94.60;30.67;;;;;;;-0.12;100.00;101667.84;7375334;19;20419;-52
2023/12/07 07:30:55;;;;;;;105.45;39.03;;;;;;;-0.10;100.00;101671.41;7394996;19;20147;-52
2023/12/07 07:33:25;;;;;;;93.05;29.90;;;;;;;-0.10;100.00;101679.91;7375547;19;20231;-51
2023/12/07 07:35:55;;;;;;;148.32;43.78;;;;;;;0.02;100.00;101695.47;7400026;19;20166;-50
2023/12/07 07:38:27;;;;;;;92.07;29.95;;;;;;;-0.07;100.00;101697.06;7374708;19;20205;-49
2023/12/07 07:40:57;;;;;;;95.90;33.80;;;;;;;-0.10;100.00;101712.00;7397188;19;20611;-50
2023/12/07 07:43:29;;;;;;;102.73;34.13;;;;;;;-0.01;100.00;101723.06;7375327;19;20249;-50
2023/12/07 07:45:59;;;;;;;92.10;30.27;;;;;;;-0.12;100.00;101733.81;7396834;19;20404;-49
2023/12/07 07:48:28;;;;;;;100.45;33.45;;;;;;;-0.04;100.00;101758.28;7375158;19;20659;-52
2023/12/07 07:50:58;;;;;;;110.28;38.33;;;;;;;-0.04;100.00;101774.41;7396684;19;20148;-51
2023/12/07 07:53:28;;;;;;;82.65;29.02;;;;;;;-0.06;100.00;101770.81;7372866;19;20683;-52
2023/12/07 07:55:58;;;;;;;87.78;30.52;;;;;;;0.06;100.00;101785.50;7397126;19;20161;-53
2023/12/07 07:58:30;;;;;;;71.95;28.48;;;;;;;0.09;100.00;101779.09;7375316;19;20642;-51
2023/12/07 08:01:00;;;;;;;85.68;30.13;;;;;;;-0.03;100.00;101775.31;7399271;19;20162;-51
2023/12/07 08:03:30;;;;;;;78.93;29.30;;;;;;;-0.08;100.00;101771.41;7372907;19;20267;-53
2023/12/07 08:05:59;;;;;;;73.55;27.63;;;;;;;-0.06;100.00;101768.28;7398031;19;20142;-52
2023/12/07 08:08:29;;;;;;;88.30;29.58;;;;;;;0.00;100.00;101770.56;7374988;19;20186;-48
2023/12/07 08:10:59;;;;;;;82.78;29.35;;;;;;;-0.09;100.00;101773.06;7396357;19;20146;-49
2023/12/07 08:13:31;;;;;;;72.13;26.33;;;;;;;-0.17;100.00;101774.81;7369239;19;20225;-53
2023/12/07 08:16:01;;;;;;;85.50;28.98;;;;;;;-0.14;100.00;101786.91;7400473;19;20177;-52
2023/12/07 08:18:30;;;;;;;88.38;28.98;;;;;;;-0.12;100.00;101800.66;7374688;19;20194;-52
2023/12/07 08:21:00;;;;;;;88.07;29.60;;;;;;;-0.15;100.00;101806.31;7397897;19;20622;-52
2023/12/07 08:23:30;;;;;;;70.47;28.67;;;;;;;-0.16;100.00;101819.75;7374309;19;20969;-52
2023/12/07 08:25:59;;;;;;;94.55;31.33;;;;;;;-0.07;100.00;101837.53;7398987;19;20138;-49
2023/12/07 08:28:31;;;;;;;80.97;31.00;;;;;;;0.04;100.00;101858.06;7374167;19;20194;-48
2023/12/07 08:31:01;;;;;;;113.32;39.00;;;;;;;0.36;100.00;101873.09;7396795;19;20135;-49
2023/12/07 08:33:31;;;;;;;103.72;37.40;;;;;;;0.29;100.00;101874.13;7374915;19;20208;-49
2023/12/07 08:36:01;;;;;;;99.15;34.35;;;;;;;0.18;100.00;101870.50;7397486;19;20135;-52
2023/12/07 08:38:31;;;;;;;94.90;33.13;;;;;;;0.03;100.00;101879.97;7373705;19;20270;-50
2023/12/07 08:41:00;;;;;;;84.65;30.33;;;;;;;0.05;100.00;101886.09;7398316;19;20428;-53
2023/12/07 08:43:33;;;;;;;108.30;39.05;;;;;;;0.11;100.00;101891.81;7374446;19;20201;-49
2023/12/07 08:46:03;;;;;;;101.13;35.83;;;;;;;0.13;100.00;101886.91;7398145;19;20174;-51
2023/12/07 08:48:33;;;;;;;92.47;34.50;;;;;;;0.15;100.00;101889.59;7375537;19;20194;-52
2023/12/07 08:51:05;;;;;;;99.95;35.38;;;;;;;0.18;100.00;101897.50;7398195;19;20150;-50
2023/12/07 08:53:35;;;;;;;144.75;51.95;;;;;;;0.25;100.00;101894.84;7372516;19;20206;-53
2023/12/07 08:56:05;;;;;;;88.35;32.03;;;;;;;0.28;100.00;101892.63;7396483;19;20163;-53
2023/12/07 08:58:37;;;;;;;90.60;33.90;;;;;;;0.30;100.00;101888.59;7371800;19;20211;-49
2023/12/07 09:01:07;;;;;;;93.00;33.17;;;;;;;0.27;100.00;101880.69;7396016;19;20411;-54
2023/12/07 09:03:47;;;;;;;91.72;32.35;;;;;;;0.33;100.00;101873.69;7372324;19;20450;-50
2023/12/07 09:06:17;;;;;;;79.73;31.07;;;;;;;0.26;100.00;101863.66;7397104;19;20147;-52
2023/12/07 09:08:47;;;;;;;110.07;36.60;;;;;;;0.35;100.00;101859.50;7373861;19;20424;-53
2023/12/07 09:11:16;;;;;;;87.13;31.42;;;;;;;0.40;100.00;101857.41;7396224;19;20155;-50
2023/12/07 09:13:49;;;;;;;93.97;34.22;;;;;;;0.45;100.00;101857.91;7371706;19;20190;-52
2023/12/07 09:16:19;;;;;;;107.03;37.47;;;;;;;0.46;100.00;101850.41;7396499;19;20519;-50
2023/12/07 09:18:48;;;;;;;115.60;37.27;;;;;;;0.42;100.00;101838.19;7372314;19;20450;-48
2023/12/07 09:21:18;;;;;;;112.20;41.17;;;;;;;0.45;100.00;101833.38;7394329;19;20403;-50
2023/12/07 09:23:48;;;;;;;85.47;30.50;;;;;;;0.60;100.00;101808.63;7370210;19;20194;-51
2023/12/07 09:26:17;;;;;;;82.57;30.30;;;;;;;0.74;100.00;101802.38;7394994;19;20408;-51
2023/12/07 09:28:49;;;;;;;86.63;33.37;;;;;;;0.63;100.00;101769.91;7367537;19;20410;-51
2023/12/07 09:31:19;;;;;;;108.67;38.63;;;;;;;0.65;100.00;101755.72;7396705;19;20428;-52
2023/12/07 09:33:49;;;;;;;119.40;40.80;;;;;;;0.63;100.00;101736.91;7369497;19;20515;-49
2023/12/07 09:36:21;;;;;;;113.83;40.00;;;;;;;0.58;100.00;101733.00;7395052;19;20483;-49
2023/12/07 09:38:50;;;;;;;100.30;36.07;;;;;;;0.49;100.00;101712.69;7369990;19;20422;-51
2023/12/07 09:41:20;;;;;;;140.37;44.70;;;;;;;0.40;100.00;101702.50;7394151;19;20399;-48
2023/12/07 09:43:52;;;;;;;123.87;39.53;;;;;;;0.43;100.00;101702.84;7369668;19;20450;-51
2023/12/07 09:46:22;;;;;;;88.10;32.67;;;;;;;0.24;100.00;101700.13;7395732;19;20458;-51
2023/12/07 09:48:52;;;;;;;94.07;36.77;;;;;;;0.32;100.00;101695.81;7372588;19;20230;-50
2023/12/07 09:51:21;;;;;;;228.97;78.90;;;;;;;0.47;100.00;101694.75;7394497;19;20407;-53
2023/12/07 09:53:55;;;;;;;109.37;36.10;;;;;;;0.56;100.00;101676.09;7369860;19;20455;-52
2023/12/07 09:56:25;;;;;;;149.60;49.77;;;;;;;0.51;100.00;101671.44;7397083;19;20412;-49
2023/12/07 09:58:57;;;;;;;113.33;41.10;;;;;;;0.72;100.00;101670.84;7370178;19;20495;-50
2023/12/07 10:01:30;;;;;;;98.77;33.80;;;;;;;0.63;100.00;101656.53;7395023;19;20486;-53
2023/12/07 10:04:18;;;;;;;94.47;33.07;;;;;;;0.64;100.00;101635.44;7369768;19;20468;-49
2023/12/07 10:06:49;;;;;;;99.93;33.97;;;;;;;0.70;100.00;101616.44;7395703;19;20466;-50
2023/12/07 10:09:19;;;;;;;103.77;36.57;;;;;;;0.73;100.00;101594.78;7371595;19;20945;-48
2023/12/07 10:12:05;;;;;;;111.90;37.90;;;;;;;0.64;100.00;101587.19;7392816;19;20414;-48
2023/12/07 10:14:37;;;;;;;109.90;34.60;;;;;;;0.50;100.00;101577.31;7373279;19;20450;-47
2023/12/07 10:17:07;;;;;;;100.37;34.67;;;;;;;0.45;100.00;101578.56;7396426;19;20420;-49
2023/12/07 10:19:36;;;;;;;102.90;32.77;;;;;;;0.48;100.00;101578.84;7371900;19;20453;-52
2023/12/07 10:22:15;;;;;;;93.70;33.67;;;;;;;0.48;100.00;101579.75;7396720;19;20420;-51
2023/12/07 10:24:45;;;;;;;103.70;33.70;;;;;;;0.43;100.00;101580.94;7371814;19;20447;-54
2023/12/07 10:27:15;;;;;;;113.53;39.60;;;;;;;0.56;100.00;101588.06;7373824;19;20400;-49
2023/12/07 10:29:47;;;;;;;131.10;42.30;;;;;;;0.67;100.00;101597.63;7394553;19;20390;-49
2023/12/07 10:32:18;;;;;;;115.33;41.53;;;;;;;0.56;100.00;101604.97;7375055;19;20399;-50
2023/12/07 10:34:48;;;;;;;171.85;56.55;;;;;;;0.73;100.00;101611.66;7392529;19;20424;-52
2023/12/07 10:37:18;;;;;;;100.40;34.50;;;;;;;0.65;100.00;101611.81;7376411;19;20699;-54
2023/12/07 10:39:48;;;;;;;112.40;39.90;;;;;;;0.61;100.00;101617.34;7399238;19;20506;-50
2023/12/07 10:42:19;;;;;;;111.23;37.47;;;;;;;0.63;100.00;101615.88;7376642;19;20759;-49
2023/12/07 10:44:52;;;;;;;108.83;36.60;;;;;;;0.76;100.00;101615.38;7400947;19;21062;-48
2023/12/07 10:47:24;;;;;;;100.63;36.50;;;;;;;0.80;100.00;101608.94;7376507;19;20386;-53
2023/12/07 10:49:58;;;;;;;101.97;34.30;;;;;;;0.84;100.00;101605.97;7397582;19;20135;-49
2023/12/07 10:52:30;;;;;;;118.83;38.83;;;;;;;0.76;100.00;101596.69;7378304;19;20771;-51
2023/12/07 10:55:05;;;;;;;102.33;34.90;;;;;;;0.74;100.00;101591.50;7398736;19;20850;-49
2023/12/07 10:57:37;;;;;;;118.13;38.10;;;;;;;0.73;100.00;101587.16;7375217;19;20839;-50
2023/12/07 11:00:10;;;;;;;101.90;35.07;;;;;;;0.70;100.00;101585.94;7398801;19;20403;-51
2023/12/07 11:02:41;;;;;;;133.63;40.87;;;;;;;0.74;100.00;101590.56;7378782;19;20466;-50
2023/12/07 11:05:11;;;;;;;107.73;37.20;;;;;;;0.73;100.00;101583.72;7398626;19;20530;-50
2023/12/07 11:07:50;;;;;;;127.23;42.77;;;;;;;0.82;100.00;101593.84;7374908;19;20431;-52
2023/12/07 11:10:25;;;;;;;110.50;37.10;;;;;;;0.72;100.00;101602.25;7397448;19;20403;-49
2023/12/07 11:12:59;;;;;;;98.20;35.30;;;;;;;0.74;100.00;101605.81;7373446;19;20805;-49
2023/12/07 11:15:32;;;;;;;99.47;36.30;;;;;;;0.70;100.00;101604.63;7397428;19;20398;-48